createdAt,value
2024-05-09T00:00:38.661Z,100456.56
2024-05-09T00:03:07.531Z,100450.44
2024-05-09T00:05:34.712Z,100458.59
2024-05-09T00:08:01.694Z,100455.88
2024-05-09T00:10:35.414Z,100442.38
2024-05-09T00:13:05.227Z,100449.28
2024-05-09T00:15:32.076Z,100447.41
2024-05-09T00:17:59.025Z,100446.41
2024-05-09T00:20:33.656Z,100442.09
2024-05-09T00:23:05.402Z,100443.91
2024-05-09T00:25:32.188Z,100442.56
2024-05-09T00:27:58.925Z,100452.16
2024-05-09T00:30:33.310Z,100446.53
2024-05-09T00:33:02.789Z,100446.69
2024-05-09T00:35:30.025Z,100449.19
2024-05-09T00:37:56.628Z,100448.16
2024-05-09T00:40:31.149Z,100445.50
2024-05-09T00:43:08.481Z,100446.16
2024-05-09T00:45:35.470Z,100456.09
2024-05-09T00:48:03.997Z,100458.16
2024-05-09T00:50:36.379Z,100453.53
2024-05-09T00:53:07.114Z,100453.28
2024-05-09T00:55:35.466Z,100457.03
2024-05-09T00:58:03.224Z,100458.72
2024-05-09T01:00:35.853Z,100461.31
2024-05-09T01:03:06.698Z,100457.72
2024-05-09T01:05:33.757Z,100461.31
2024-05-09T01:08:00.625Z,100458.00
2024-05-09T01:10:33.757Z,100456.63
2024-05-09T01:13:03.463Z,100456.84
2024-05-09T01:15:30.229Z,100456.53
2024-05-09T01:17:58.256Z,100459.84
2024-05-09T01:20:36.575Z,100464.00
2024-05-09T01:23:09.369Z,100466.81
2024-05-09T01:25:36.768Z,100462.22
2024-05-09T01:28:03.395Z,100467.28
2024-05-09T01:30:34.863Z,100464.56
2024-05-09T01:33:05.230Z,100461.34
2024-05-09T01:35:33.008Z,100470.72
2024-05-09T01:37:59.962Z,100469.53
2024-05-09T01:40:36.253Z,100471.28
2024-05-09T01:43:05.986Z,100465.28
2024-05-09T01:45:32.711Z,100464.47
2024-05-09T01:47:59.765Z,100458.63
2024-05-09T01:50:37.268Z,100465.59
2024-05-09T01:53:08.605Z,100466.47
2024-05-09T01:55:35.531Z,100470.50
2024-05-09T01:58:02.267Z,100469.41
2024-05-09T02:00:36.283Z,100474.22
2024-05-09T02:03:13.370Z,100474.06
2024-05-09T02:05:43.408Z,100472.03
2024-05-09T02:08:14.444Z,100457.72
2024-05-09T02:10:41.301Z,100457.41
2024-05-09T02:13:08.101Z,100458.44
2024-05-09T02:15:34.859Z,100455.56
2024-05-09T02:18:01.884Z,100453.00
2024-05-09T02:20:35.196Z,100457.09
2024-05-09T02:23:04.156Z,100454.53
2024-05-09T02:25:31.678Z,100454.00
2024-05-09T02:27:58.269Z,100457.41
2024-05-09T02:30:34.949Z,100454.00
2024-05-09T02:33:06.487Z,100454.53
2024-05-09T02:35:33.438Z,100450.81
2024-05-09T02:38:00.457Z,100463.56
2024-05-09T02:40:35.591Z,100457.16
2024-05-09T02:43:05.923Z,100456.22
2024-05-09T02:45:33.025Z,100456.38
2024-05-09T02:48:00.031Z,100462.13
2024-05-09T02:50:34.437Z,100455.09
2024-05-09T02:53:06.137Z,100455.97
2024-05-09T02:55:33.261Z,100459.38
2024-05-09T02:57:59.952Z,100467.84
2024-05-09T03:00:35.001Z,100456.41
2024-05-09T03:03:11.665Z,100457.75
2024-05-09T03:05:41.804Z,100463.34
2024-05-09T03:08:09.078Z,100461.66
2024-05-09T03:10:38.317Z,100467.91
2024-05-09T03:13:10.037Z,100473.22
2024-05-09T03:15:37.041Z,100461.66
2024-05-09T03:18:05.304Z,100460.94
2024-05-09T03:20:35.037Z,100464.66
2024-05-09T03:23:04.128Z,100459.09
2024-05-09T03:25:31.103Z,100461.13
2024-05-09T03:27:57.839Z,100465.69
2024-05-09T03:30:31.184Z,100468.25
2024-05-09T03:33:10.555Z,100467.53
2024-05-09T03:35:37.987Z,100480.00
2024-05-09T03:38:05.002Z,100477.72
2024-05-09T03:40:31.655Z,100483.03
2024-05-09T03:42:58.339Z,100476.31
2024-05-09T03:45:25.030Z,100477.44
2024-05-09T03:47:52.107Z,100485.31
2024-05-09T03:50:26.489Z,100493.34
2024-05-09T03:53:00.825Z,100492.66
2024-05-09T03:55:27.932Z,100487.75
2024-05-09T03:57:54.613Z,100496.91
2024-05-09T04:00:30.572Z,100497.06
2024-05-09T04:03:04.158Z,100500.78
2024-05-09T04:05:31.561Z,100504.19
2024-05-09T04:07:58.682Z,100511.94
2024-05-09T04:10:32.331Z,100504.03
2024-05-09T04:13:00.976Z,100511.78
2024-05-09T04:15:27.677Z,100515.34
2024-05-09T04:17:54.578Z,100517.47
2024-05-09T04:20:32.469Z,100517.38
2024-05-09T04:23:06.048Z,100519.66
2024-05-09T04:25:33.029Z,100520.94
2024-05-09T04:27:59.733Z,100524.22
2024-05-09T04:30:35.957Z,100525.66
2024-05-09T04:33:07.723Z,100527.53
2024-05-09T04:35:36.095Z,100526.97
2024-05-09T04:38:02.968Z,100523.38
2024-05-09T04:40:34.171Z,100524.53
2024-05-09T04:43:07.258Z,100526.69
2024-05-09T04:45:34.366Z,100525.09
2024-05-09T04:48:02.075Z,100528.53
2024-05-09T04:50:35.706Z,100532.81
2024-05-09T04:53:06.995Z,100528.53
2024-05-09T04:55:34.811Z,100533.81
2024-05-09T04:58:01.475Z,100548.41
2024-05-09T05:00:35.006Z,100544.41
2024-05-09T05:03:06.665Z,100547.56
2024-05-09T05:05:34.574Z,100557.84
2024-05-09T05:08:01.554Z,100565.13
2024-05-09T05:10:33.996Z,100556.28
2024-05-09T05:13:03.464Z,100564.72
2024-05-09T05:15:30.189Z,100566.56
2024-05-09T05:17:57.055Z,100564.59
2024-05-09T05:20:30.964Z,100572.44
2024-05-09T05:23:00.566Z,100571.88
2024-05-09T05:25:27.389Z,100571.72
2024-05-09T05:27:54.120Z,100575.00
2024-05-09T05:30:25.287Z,100582.44
2024-05-09T05:32:56.030Z,100590.44
2024-05-09T05:35:22.830Z,100586.13
2024-05-09T05:37:49.692Z,100590.16
2024-05-09T05:40:25.377Z,100600.44
2024-05-09T05:42:59.794Z,100597.56
2024-05-09T05:45:26.483Z,100595.72
2024-05-09T05:47:54.976Z,100605.44
2024-05-09T05:50:27.914Z,100606.28
2024-05-09T05:53:02.002Z,100605.56
2024-05-09T05:55:28.849Z,100614.81
2024-05-09T05:57:55.605Z,100620.53
2024-05-09T06:00:29.722Z,100619.41
2024-05-09T06:03:04.876Z,100621.28
2024-05-09T06:05:32.150Z,100622.94
2024-05-09T06:07:59.285Z,100631.97
2024-05-09T06:10:34.434Z,100626.69
2024-05-09T06:13:05.201Z,100634.97
2024-05-09T06:15:31.999Z,100632.25
2024-05-09T06:17:59.265Z,100631.78
2024-05-09T06:20:34.684Z,100642.06
2024-05-09T06:23:05.052Z,100639.63
2024-05-09T06:25:32.014Z,100642.22
2024-05-09T06:28:00.337Z,100648.75
2024-05-09T06:30:36.649Z,100643.47
2024-05-09T06:33:07.840Z,100650.03
2024-05-09T06:35:35.437Z,100652.16
2024-05-09T06:38:02.551Z,100654.59
2024-05-09T06:40:37.122Z,100652.56
2024-05-09T06:43:11.369Z,100656.53
2024-05-09T06:45:38.159Z,100656.69
2024-05-09T06:48:05.457Z,100659.81
2024-05-09T06:50:37.495Z,100659.81
2024-05-09T06:53:05.772Z,100660.09
2024-05-09T06:55:32.843Z,100674.75
2024-05-09T06:57:59.586Z,100676.88
2024-05-09T07:00:34.779Z,100675.41
2024-05-09T07:03:15.363Z,100670.25
2024-05-09T07:05:44.828Z,100669.25
2024-05-09T07:08:11.991Z,100677.13
2024-05-09T07:10:38.838Z,100684.78
2024-05-09T07:13:10.148Z,100675.94
2024-05-09T07:15:36.924Z,100678.06
2024-05-09T07:18:14.572Z,100672.38
2024-05-09T07:20:42.227Z,100671.31
2024-05-09T07:23:09.753Z,100686.34
2024-05-09T07:25:37.169Z,100675.63
2024-05-09T07:28:04.159Z,100674.94
2024-05-09T07:30:34.083Z,100675.41
2024-05-09T07:33:02.859Z,100684.88
2024-05-09T07:35:30.758Z,100674.97
2024-05-09T07:37:57.918Z,100688.22
2024-05-09T07:40:32.662Z,100684.41
2024-05-09T07:43:08.408Z,100689.41
2024-05-09T07:52:24.024Z,100702.00
2024-05-09T07:53:39.130Z,100698.88
2024-05-09T07:56:09.977Z,100701.91
2024-05-09T07:58:37.803Z,100705.22
2024-05-09T08:01:05.552Z,100705.91
2024-05-09T08:03:32.719Z,100705.91
2024-05-09T08:05:59.551Z,100711.94
2024-05-09T08:08:26.286Z,100708.53
2024-05-09T08:10:53.087Z,100721.84
2024-05-09T08:13:19.900Z,100711.28
2024-05-09T08:15:46.738Z,100726.44
2024-05-09T08:18:13.577Z,100718.94
2024-05-09T08:20:41.858Z,100721.16
2024-05-09T08:23:08.666Z,100722.03
2024-05-09T08:25:35.385Z,100725.22
2024-05-09T08:28:04.670Z,100726.03
2024-05-09T08:30:36.768Z,100728.00
2024-05-09T08:33:06.317Z,100730.91
2024-05-09T08:35:34.068Z,100733.63
2024-05-09T08:38:03.543Z,100724.25
2024-05-09T08:40:35.017Z,100731.38
2024-05-09T08:43:07.877Z,100739.59
2024-05-09T08:45:35.468Z,100740.31
2024-05-09T08:48:03.436Z,100742.91
2024-05-09T08:50:37.583Z,100735.69
2024-05-09T08:53:06.305Z,100743.69
2024-05-09T08:55:33.442Z,100744.16
2024-05-09T08:58:00.979Z,100750.53
2024-05-09T09:00:35.867Z,100752.88
2024-05-09T09:03:06.869Z,100749.84
2024-05-09T09:05:37.263Z,100746.91
2024-05-09T09:08:07.430Z,100754.72
2024-05-09T09:10:34.356Z,100750.25
2024-05-09T09:13:02.025Z,100750.28
2024-05-09T09:15:28.792Z,100757.97
2024-05-09T09:17:59.420Z,100757.22
2024-05-09T09:20:34.153Z,100754.09
2024-05-09T09:23:04.127Z,100765.69
2024-05-09T09:25:31.243Z,100762.03
2024-05-09T09:27:58.621Z,100767.47
2024-05-09T09:30:36.474Z,100763.81
2024-05-09T09:33:14.145Z,100766.16
2024-05-09T09:35:41.116Z,100753.75
2024-05-09T09:38:08.548Z,100765.47
2024-05-09T09:40:41.086Z,100767.59
2024-05-09T09:43:18.169Z,100764.53
2024-05-09T09:45:46.505Z,100769.09
2024-05-09T09:48:14.881Z,100769.75
2024-05-09T09:50:42.504Z,100773.06
2024-05-09T09:53:10.279Z,100782.63
2024-05-09T09:55:37.792Z,100772.78
2024-05-09T09:58:05.867Z,100774.41
2024-05-09T10:00:34.311Z,100772.56
2024-05-09T10:03:01.959Z,100770.91
2024-05-09T10:05:29.884Z,100774.84
2024-05-09T10:07:58.536Z,100778.28
2024-05-09T10:10:32.158Z,100775.09
2024-05-09T10:13:00.870Z,100778.44
2024-05-09T10:15:28.071Z,100777.16
2024-05-09T10:18:04.149Z,100771.84
2024-05-09T10:20:44.469Z,100778.59
2024-05-09T10:23:31.230Z,100774.63
2024-05-09T10:26:05.716Z,100774.09
2024-05-09T10:28:34.201Z,100776.94
2024-05-09T10:31:09.340Z,100780.78
2024-05-09T10:33:40.702Z,100777.22
2024-05-09T10:36:14.681Z,100782.44
2024-05-09T10:38:43.024Z,100773.97
2024-05-09T10:41:11.165Z,100782.56
2024-05-09T10:43:41.609Z,100782.69
2024-05-09T10:46:09.743Z,100781.22
2024-05-09T10:48:37.859Z,100779.13
2024-05-09T10:51:05.370Z,100779.72
2024-05-09T10:53:32.417Z,100784.53
2024-05-09T10:56:01.637Z,100781.56
2024-05-09T10:58:28.481Z,100776.88
2024-05-09T11:00:55.604Z,100783.91
2024-05-09T11:03:25.977Z,100771.19
2024-05-09T11:05:53.625Z,100775.16
2024-05-09T11:08:21.117Z,100773.31
2024-05-09T11:10:50.851Z,100762.34
2024-05-09T11:13:31.141Z,100771.59
2024-05-09T11:16:01.186Z,100770.28
2024-05-09T11:18:33.256Z,100772.72
2024-05-09T11:21:03.054Z,100769.88
2024-05-09T11:23:29.850Z,100780.31
2024-05-09T11:25:58.252Z,100771.44
2024-05-09T11:28:27.028Z,100769.16
2024-05-09T11:31:08.911Z,100769.63
2024-05-09T11:33:37.361Z,100765.28
2024-05-09T11:36:05.276Z,100759.63
2024-05-09T11:38:32.791Z,100762.56
2024-05-09T11:40:59.748Z,100766.84
2024-05-09T11:43:26.440Z,100768.34
2024-05-09T11:45:53.433Z,100768.47
2024-05-09T11:48:20.372Z,100769.88
2024-05-09T11:50:47.133Z,100766.16
2024-05-09T11:53:13.868Z,100768.84
2024-05-09T11:55:40.752Z,100764.28
2024-05-09T11:58:07.603Z,100764.94
2024-05-09T12:00:37.281Z,100760.31
2024-05-09T12:03:05.960Z,100764.59
2024-05-09T12:05:34.042Z,100770.16
2024-05-09T12:08:01.486Z,100762.56
2024-05-09T12:10:33.443Z,100764.78
2024-05-09T12:13:03.997Z,100761.59
2024-05-09T12:15:32.422Z,100761.47
2024-05-09T12:18:02.692Z,100762.72
2024-05-09T12:20:36.663Z,100758.44
2024-05-09T12:23:06.494Z,100765.97
2024-05-09T12:25:33.462Z,100760.41
2024-05-09T12:28:00.713Z,100764.38
2024-05-09T12:30:36.004Z,100770.84
2024-05-09T12:33:11.636Z,100765.63
2024-05-09T12:35:39.285Z,100769.41
2024-05-09T12:38:06.002Z,100766.69
2024-05-09T12:40:36.844Z,100762.91
2024-05-09T12:43:08.728Z,100761.56
2024-05-09T12:45:36.758Z,100759.06
2024-05-09T12:48:04.155Z,100763.81
2024-05-09T12:50:33.348Z,100758.53
2024-05-09T12:53:02.411Z,100747.69
2024-05-09T12:55:34.193Z,100756.94
2024-05-09T12:58:08.336Z,100759.19
2024-05-09T13:00:35.436Z,100755.94
2024-05-09T13:03:02.384Z,100750.66
2024-05-09T13:05:29.800Z,100750.66
2024-05-09T13:07:57.291Z,100744.50
2024-05-09T13:10:31.624Z,100744.84
2024-05-09T13:13:01.210Z,100735.13
2024-05-09T13:15:31.107Z,100737.97
2024-05-09T13:18:02.086Z,100742.66
2024-05-09T13:20:33.860Z,100740.94
2024-05-09T13:23:03.825Z,100740.47
2024-05-09T13:25:30.639Z,100738.88
2024-05-09T13:27:57.850Z,100733.72
2024-05-09T13:30:30.227Z,100732.22
2024-05-09T13:33:06.857Z,100729.50
2024-05-09T13:35:34.885Z,100729.38
2024-05-09T13:38:02.562Z,100733.91
2024-05-09T13:40:33.812Z,100736.75
2024-05-09T13:43:03.674Z,100739.75
2024-05-09T13:45:30.720Z,100736.16
2024-05-09T13:47:57.811Z,100734.19
2024-05-09T13:50:33.158Z,100732.94
2024-05-09T13:53:02.908Z,100726.78
2024-05-09T13:55:29.664Z,100734.78
2024-05-09T13:57:56.619Z,100728.03
2024-05-09T14:00:37.724Z,100730.13
2024-05-09T14:03:10.390Z,100723.53
2024-05-09T14:05:37.387Z,100720.81
2024-05-09T14:08:04.730Z,100722.78
2024-05-09T14:10:32.413Z,100731.44
2024-05-09T14:13:00.981Z,100719.22
2024-05-09T14:15:27.949Z,100722.13
2024-05-09T14:17:55.465Z,100725.09
2024-05-09T14:20:30.445Z,100728.47
2024-05-09T14:23:00.580Z,100726.38
2024-05-09T14:25:30.572Z,100726.97
2024-05-09T14:27:58.129Z,100723.41
2024-05-09T14:30:33.946Z,100717.97
2024-05-09T14:33:05.079Z,100716.63
2024-05-09T14:35:32.276Z,100734.38
2024-05-09T14:37:59.237Z,100732.16
2024-05-09T14:40:37.088Z,100732.69
2024-05-09T14:43:09.797Z,100741.81
2024-05-09T14:45:36.708Z,100739.09
2024-05-09T14:48:04.165Z,100732.69
2024-05-09T14:50:36.499Z,100736.13
2024-05-09T14:53:10.481Z,100730.59
2024-05-09T14:55:38.443Z,100726.25
2024-05-09T14:58:09.684Z,100732.28
2024-05-09T15:00:45.635Z,100729.44
2024-05-09T15:03:16.453Z,100737.91
2024-05-09T15:05:43.338Z,100726.03
2024-05-09T15:08:10.213Z,100723.31
2024-05-09T15:10:37.775Z,100729.72
2024-05-09T15:13:07.327Z,100728.47
2024-05-09T15:15:35.841Z,100723.81
2024-05-09T15:18:04.424Z,100720.97
2024-05-09T15:20:35.548Z,100718.53
2024-05-09T15:23:06.317Z,100718.13
2024-05-09T15:25:34.534Z,100727.00
2024-05-09T15:28:01.521Z,100728.00
2024-05-09T15:30:31.827Z,100734.31
2024-05-09T15:33:01.423Z,100728.41
2024-05-09T15:35:28.454Z,100723.78
2024-05-09T15:37:55.800Z,100726.75
2024-05-09T15:40:31.659Z,100716.97
2024-05-09T15:43:06.147Z,100724.13
2024-05-09T15:45:34.649Z,100728.53
2024-05-09T15:48:02.983Z,100730.03
2024-05-09T15:50:37.062Z,100718.44
2024-05-09T15:53:08.513Z,100727.19
2024-05-09T15:55:36.170Z,100719.56
2024-05-09T15:58:04.195Z,100725.97
2024-05-09T16:00:38.907Z,100730.16
2024-05-09T16:03:13.870Z,100724.66
2024-05-09T16:05:43.637Z,100728.94
2024-05-09T16:08:11.454Z,100727.09
2024-05-09T16:10:39.296Z,100729.81
2024-05-09T16:13:06.685Z,100734.34
2024-05-09T16:15:33.418Z,100727.94
2024-05-09T16:18:01.051Z,100729.94
2024-05-09T16:20:38.755Z,100728.94
2024-05-09T16:23:08.791Z,100730.91
2024-05-09T16:25:35.885Z,100723.03
2024-05-09T16:28:06.353Z,100731.91
2024-05-09T16:30:36.462Z,100730.06
2024-05-09T16:33:04.840Z,100734.00
2024-05-09T16:35:32.302Z,100740.53
2024-05-09T16:38:01.195Z,100742.50
2024-05-09T16:40:36.179Z,100741.75
2024-05-09T16:43:07.291Z,100744.88
2024-05-09T16:45:34.636Z,100743.50
2024-05-09T16:48:02.083Z,100752.25
2024-05-09T16:50:33.436Z,100741.66
2024-05-09T16:53:02.830Z,100751.50
2024-05-09T16:55:29.775Z,100745.81
2024-05-09T16:57:57.164Z,100740.41
2024-05-09T17:00:35.267Z,100743.72
2024-05-09T17:03:08.674Z,100750.16
2024-05-09T17:05:36.200Z,100754.44
2024-05-09T17:08:03.627Z,100757.03
2024-05-09T17:10:33.710Z,100760.72
2024-05-09T17:13:03.435Z,100758.41
2024-05-09T17:15:32.046Z,100760.97
2024-05-09T17:17:59.120Z,100759.97
2024-05-09T17:20:32.420Z,100764.19
2024-05-09T17:23:02.811Z,100772.78
2024-05-09T17:25:29.659Z,100770.59
2024-05-09T17:27:57.083Z,100763.81
2024-05-09T17:30:29.355Z,100772.81
2024-05-09T17:33:03.349Z,100769.22
2024-05-09T17:35:30.502Z,100765.94
2024-05-09T17:37:57.519Z,100775.63
2024-05-09T17:40:31.468Z,100761.09
2024-05-09T17:43:02.702Z,100765.94
2024-05-09T17:45:29.795Z,100771.44
2024-05-09T17:47:56.909Z,100770.34
2024-05-09T17:50:30.396Z,100762.09
2024-05-09T17:53:01.639Z,100770.34
2024-05-09T17:55:28.954Z,100766.03
2024-05-09T17:57:55.999Z,100773.31
2024-05-09T18:00:33.097Z,100773.31
2024-05-09T18:03:05.910Z,100777.09
2024-05-09T18:05:33.185Z,100767.75
2024-05-09T18:08:00.293Z,100768.16
2024-05-09T18:10:34.836Z,100773.31
2024-05-09T18:13:04.765Z,100769.38
2024-05-09T18:15:31.578Z,100769.63
2024-05-09T18:17:58.590Z,100773.78
2024-05-09T18:20:36.102Z,100771.06
2024-05-09T18:23:08.379Z,100775.16
2024-05-09T18:25:35.161Z,100776.75
2024-05-09T18:28:03.153Z,100780.06
2024-05-09T18:30:34.851Z,100790.03
2024-05-09T18:33:05.110Z,100792.84
2024-05-09T18:35:32.937Z,100793.56
2024-05-09T18:37:59.672Z,100791.97
2024-05-09T18:40:33.145Z,100795.94
2024-05-09T18:43:03.684Z,100797.16
2024-05-09T18:45:30.977Z,100793.19
2024-05-09T18:47:58.425Z,100794.28
2024-05-09T18:50:34.246Z,100805.25
2024-05-09T18:53:12.255Z,100799.81
2024-05-09T18:55:40.554Z,100789.88
2024-05-09T18:58:07.490Z,100797.25
2024-05-09T19:00:37.772Z,100799.81
2024-05-09T19:03:07.521Z,100807.31
2024-05-09T19:05:36.076Z,100799.69
2024-05-09T19:08:03.735Z,100810.78
2024-05-09T19:10:34.425Z,100804.03
2024-05-09T19:13:06.886Z,100813.47
2024-05-09T19:15:38.016Z,100819.53
2024-05-09T19:18:05.512Z,100825.06
2024-05-09T19:20:34.981Z,100815.34
2024-05-09T19:23:05.201Z,100821.47
2024-05-09T19:25:33.184Z,100825.69
2024-05-09T19:28:00.937Z,100826.75
2024-05-09T19:30:36.854Z,100827.50
2024-05-09T19:33:07.939Z,100835.25
2024-05-09T19:35:35.043Z,100833.41
2024-05-09T19:38:02.448Z,100825.69
2024-05-09T19:40:32.243Z,100834.75
2024-05-09T19:43:05.604Z,100829.72
2024-05-09T19:45:34.590Z,100828.00
2024-05-09T19:48:02.714Z,100836.00
2024-05-09T19:50:37.405Z,100828.00
2024-05-09T19:53:10.390Z,100826.88
2024-05-09T19:55:37.760Z,100828.38
2024-05-09T19:58:06.155Z,100825.78
2024-05-09T20:00:36.706Z,100814.34
2024-05-09T20:03:06.109Z,100817.91
2024-05-09T20:05:33.627Z,100820.25
2024-05-09T20:08:00.803Z,100817.31
2024-05-09T20:10:32.396Z,100826.00
2024-05-09T20:13:01.576Z,100824.19
2024-05-09T20:15:28.270Z,100830.59
2024-05-09T20:17:55.417Z,100837.81
2024-05-09T20:22:52.057Z,100837.69
2024-05-09T20:25:18.869Z,100834.38
2024-05-09T20:27:45.726Z,100842.50
2024-05-09T20:30:17.070Z,100845.56
2024-05-09T20:32:48.268Z,100844.69
2024-05-09T20:35:15.052Z,100840.78
2024-05-09T20:37:41.787Z,100838.06
2024-05-09T20:40:15.374Z,100840.03
2024-05-09T20:42:45.542Z,100840.91
2024-05-09T20:45:12.390Z,100837.19
2024-05-09T20:47:39.169Z,100837.81
2024-05-09T20:50:13.699Z,100846.94
2024-05-09T20:52:47.184Z,100845.69
2024-05-09T20:55:13.955Z,100845.19
2024-05-09T20:57:40.774Z,100850.97
2024-05-09T21:00:14.944Z,100849.13
2024-05-09T21:02:45.410Z,100847.41
2024-05-09T21:05:13.375Z,100849.97
2024-05-09T21:07:40.183Z,100849.97
2024-05-09T21:10:15.232Z,100839.13
2024-05-09T21:12:46.056Z,100840.97
2024-05-09T21:15:12.856Z,100841.09
2024-05-09T21:17:39.690Z,100834.94
2024-05-09T21:20:14.224Z,100829.88
2024-05-09T21:22:44.311Z,100830.28
2024-05-09T21:25:11.146Z,100831.91
2024-05-09T21:27:38.018Z,100835.69
2024-05-09T21:30:07.763Z,100832.97
2024-05-09T21:32:36.735Z,100831.25
2024-05-09T21:35:03.640Z,100839.50
2024-05-09T21:37:30.362Z,100838.50
2024-05-09T21:39:58.515Z,100846.63
2024-05-09T21:42:25.289Z,100840.59
2024-05-09T21:44:52.014Z,100841.56
2024-05-09T21:47:18.776Z,100845.66
2024-05-09T21:49:45.621Z,100851.06
2024-05-09T21:52:12.364Z,100859.78
2024-05-09T21:54:40.574Z,100849.97
2024-05-09T21:57:07.312Z,100850.94
2024-05-09T21:59:34.081Z,100846.50
2024-05-09T22:02:00.947Z,100847.13
2024-05-09T22:04:27.916Z,100848.25
2024-05-09T22:06:54.846Z,100848.00
2024-05-09T22:09:21.620Z,100846.63
2024-05-09T22:11:51.351Z,100848.97
2024-05-09T22:14:19.211Z,100845.28
2024-05-09T22:16:45.892Z,100849.97
2024-05-09T22:19:12.687Z,100841.97
2024-05-09T22:21:39.487Z,100843.78
2024-05-09T22:24:06.606Z,100846.63
2024-05-09T22:26:36.537Z,100853.16
2024-05-09T22:29:03.647Z,100848.56
2024-05-09T22:31:30.367Z,100848.97
2024-05-09T22:33:57.308Z,100847.00
2024-05-09T22:36:24.124Z,100853.03
2024-05-09T22:38:50.877Z,100854.50
2024-05-09T22:41:17.580Z,100848.00
2024-05-09T22:43:44.281Z,100849.97
2024-05-09T22:46:11.243Z,100856.88
2024-05-09T22:48:38.267Z,100851.06
2024-05-09T22:51:05.424Z,100850.56
2024-05-09T22:53:32.157Z,100838.88
2024-05-09T22:55:58.880Z,100842.09
2024-05-09T22:58:25.942Z,100839.13
2024-05-09T23:00:52.846Z,100845.66
2024-05-09T23:03:20.010Z,100838.38
2024-05-09T23:05:46.746Z,100835.06
2024-05-09T23:08:13.459Z,100832.72
2024-05-09T23:10:40.211Z,100832.22
2024-05-09T23:13:07.987Z,100828.28
2024-05-09T23:15:36.562Z,100833.81
2024-05-09T23:18:03.591Z,100832.09
2024-05-09T23:20:37.030Z,100826.91
2024-05-09T23:23:07.248Z,100834.78
2024-05-09T23:25:37.353Z,100829.50
2024-05-09T23:28:04.586Z,100833.94
2024-05-09T23:30:37.580Z,100823.84
2024-05-09T23:33:08.380Z,100825.09
2024-05-09T23:35:35.626Z,100826.03
2024-05-09T23:38:02.478Z,100826.03
2024-05-09T23:40:37.781Z,100821.25
2024-05-09T23:43:07.910Z,100815.03
2024-05-09T23:45:35.008Z,100818.22
2024-05-09T23:48:02.165Z,100818.81
2024-05-09T23:50:35.919Z,100822.66
2024-05-09T23:53:06.925Z,100827.31
2024-05-09T23:55:34.986Z,100823.53
2024-05-09T23:58:01.897Z,100822.78
